sensor_id;sensor_type;location;lat;lon;timestamp;temperature;humidity
28193;DHT22;15473;50.840;3.396;2022-07-10T00:01:21;14.60;99.90
28193;DHT22;15473;50.840;3.396;2022-07-10T00:04:07;14.60;99.90
28193;DHT22;15473;50.840;3.396;2022-07-10T00:06:52;14.50;99.90
28193;DHT22;15473;50.840;3.396;2022-07-10T00:09:39;14.50;99.90
28193;DHT22;15473;50.840;3.396;2022-07-10T00:12:25;14.50;99.90
28193;DHT22;15473;50.840;3.396;2022-07-10T00:15:32;14.50;99.90
28193;DHT22;15473;50.840;3.396;2022-07-10T00:18:18;14.40;99.90
28193;DHT22;15473;50.840;3.396;2022-07-10T00:21:03;14.40;99.90
28193;DHT22;15473;50.840;3.396;2022-07-10T00:23:48;14.40;99.90
28193;DHT22;15473;50.840;3.396;2022-07-10T00:26:34;14.40;99.90
28193;DHT22;15473;50.840;3.396;2022-07-10T00:29:20;14.30;99.90
28193;DHT22;15473;50.840;3.396;2022-07-10T00:32:05;14.30;99.90
28193;DHT22;15473;50.840;3.396;2022-07-10T00:34:51;14.30;99.90
28193;DHT22;15473;50.840;3.396;2022-07-10T00:37:36;14.30;99.90
28193;DHT22;15473;50.840;3.396;2022-07-10T00:40:22;14.40;99.90
28193;DHT22;15473;50.840;3.396;2022-07-10T00:43:10;14.50;99.90
28193;DHT22;15473;50.840;3.396;2022-07-10T00:45:55;14.50;99.90
28193;DHT22;15473;50.840;3.396;2022-07-10T00:48:41;14.40;99.90
28193;DHT22;15473;50.840;3.396;2022-07-10T00:51:27;14.40;99.90
28193;DHT22;15473;50.840;3.396;2022-07-10T00:54:14;14.40;99.90
28193;DHT22;15473;50.840;3.396;2022-07-10T00:57:00;14.40;99.90
28193;DHT22;15473;50.840;3.396;2022-07-10T00:59:45;14.40;99.90
28193;DHT22;15473;50.840;3.396;2022-07-10T01:02:31;14.40;99.90
28193;DHT22;15473;50.840;3.396;2022-07-10T01:05:17;14.30;99.90
28193;DHT22;15473;50.840;3.396;2022-07-10T01:08:02;14.20;99.90
28193;DHT22;15473;50.840;3.396;2022-07-10T01:10:48;14.20;99.90
28193;DHT22;15473;50.840;3.396;2022-07-10T01:13:34;14.20;99.90
28193;DHT22;15473;50.840;3.396;2022-07-10T01:16:19;14.20;99.90
28193;DHT22;15473;50.840;3.396;2022-07-10T01:19:07;14.20;99.90
28193;DHT22;15473;50.840;3.396;2022-07-10T01:21:52;14.10;99.90
28193;DHT22;15473;50.840;3.396;2022-07-10T01:24:38;14.10;99.90
28193;DHT22;15473;50.840;3.396;2022-07-10T01:27:23;14.10;99.90
28193;DHT22;15473;50.840;3.396;2022-07-10T01:30:09;14.10;99.90
28193;DHT22;15473;50.840;3.396;2022-07-10T01:32:55;14.10;99.90
28193;DHT22;15473;50.840;3.396;2022-07-10T01:35:41;14.00;99.90
28193;DHT22;15473;50.840;3.396;2022-07-10T01:38:26;14.00;99.90
28193;DHT22;15473;50.840;3.396;2022-07-10T01:41:12;14.00;99.90
28193;DHT22;15473;50.840;3.396;2022-07-10T01:43:58;14.00;99.90
28193;DHT22;15473;50.840;3.396;2022-07-10T01:46:44;13.90;99.90
28193;DHT22;15473;50.840;3.396;2022-07-10T01:49:30;13.90;99.90
28193;DHT22;15473;50.840;3.396;2022-07-10T01:52:16;13.80;99.90
28193;DHT22;15473;50.840;3.396;2022-07-10T01:55:02;13.80;99.90
28193;DHT22;15473;50.840;3.396;2022-07-10T01:57:48;13.80;99.90
28193;DHT22;15473;50.840;3.396;2022-07-10T02:00:33;13.80;99.90
28193;DHT22;15473;50.840;3.396;2022-07-10T02:03:19;13.80;99.90
28193;DHT22;15473;50.840;3.396;2022-07-10T02:06:22;13.70;99.90
28193;DHT22;15473;50.840;3.396;2022-07-10T02:09:08;13.60;99.90
28193;DHT22;15473;50.840;3.396;2022-07-10T02:11:53;13.60;99.90
28193;DHT22;15473;50.840;3.396;2022-07-10T02:14:39;13.50;99.90
28193;DHT22;15473;50.840;3.396;2022-07-10T02:17:24;13.50;99.90
28193;DHT22;15473;50.840;3.396;2022-07-10T02:20:10;13.50;99.90
28193;DHT22;15473;50.840;3.396;2022-07-10T02:22:55;13.50;99.90
28193;DHT22;15473;50.840;3.396;2022-07-10T02:25:41;13.60;99.90
28193;DHT22;15473;50.840;3.396;2022-07-10T02:28:26;13.60;99.90
28193;DHT22;15473;50.840;3.396;2022-07-10T02:31:12;13.60;99.90
28193;DHT22;15473;50.840;3.396;2022-07-10T02:33:58;13.60;99.90
28193;DHT22;15473;50.840;3.396;2022-07-10T02:36:44;13.60;99.90
28193;DHT22;15473;50.840;3.396;2022-07-10T02:39:29;13.60;99.90
28193;DHT22;15473;50.840;3.396;2022-07-10T02:42:15;13.60;99.90
28193;DHT22;15473;50.840;3.396;2022-07-10T02:45:01;13.60;99.90
28193;DHT22;15473;50.840;3.396;2022-07-10T02:47:47;13.50;99.90
28193;DHT22;15473;50.840;3.396;2022-07-10T02:50:32;13.50;99.90
28193;DHT22;15473;50.840;3.396;2022-07-10T02:53:17;13.40;99.90
28193;DHT22;15473;50.840;3.396;2022-07-10T02:56:03;13.30;99.90
28193;DHT22;15473;50.840;3.396;2022-07-10T02:58:49;13.30;99.90
28193;DHT22;15473;50.840;3.396;2022-07-10T03:01:34;13.40;99.90
28193;DHT22;15473;50.840;3.396;2022-07-10T03:04:20;13.30;99.90
28193;DHT22;15473;50.840;3.396;2022-07-10T03:07:05;13.40;99.90
28193;DHT22;15473;50.840;3.396;2022-07-10T03:09:51;13.50;99.90
28193;DHT22;15473;50.840;3.396;2022-07-10T03:12:36;13.40;99.90
28193;DHT22;15473;50.840;3.396;2022-07-10T03:15:22;13.30;99.90
28193;DHT22;15473;50.840;3.396;2022-07-10T03:18:07;13.20;99.90
28193;DHT22;15473;50.840;3.396;2022-07-10T03:20:53;13.20;99.90
28193;DHT22;15473;50.840;3.396;2022-07-10T03:23:38;13.10;99.90
28193;DHT22;15473;50.840;3.396;2022-07-10T03:26:24;13.10;99.90
28193;DHT22;15473;50.840;3.396;2022-07-10T03:29:11;13.20;99.90
28193;DHT22;15473;50.840;3.396;2022-07-10T03:31:56;13.20;99.90
28193;DHT22;15473;50.840;3.396;2022-07-10T03:34:42;13.10;99.90
28193;DHT22;15473;50.840;3.396;2022-07-10T03:37:28;13.20;99.90
28193;DHT22;15473;50.840;3.396;2022-07-10T03:40:13;13.30;99.90
28193;DHT22;15473;50.840;3.396;2022-07-10T03:42:59;13.30;99.90
28193;DHT22;15473;50.840;3.396;2022-07-10T03:45:45;13.40;99.90
28193;DHT22;15473;50.840;3.396;2022-07-10T03:48:30;13.40;99.90
28193;DHT22;15473;50.840;3.396;2022-07-10T03:51:16;13.50;99.90
28193;DHT22;15473;50.840;3.396;2022-07-10T03:54:02;13.30;99.90
28193;DHT22;15473;50.840;3.396;2022-07-10T03:56:48;13.40;99.90
28193;DHT22;15473;50.840;3.396;2022-07-10T03:59:51;13.40;99.90
28193;DHT22;15473;50.840;3.396;2022-07-10T04:02:37;13.40;99.90
28193;DHT22;15473;50.840;3.396;2022-07-10T04:05:24;13.40;99.90
28193;DHT22;15473;50.840;3.396;2022-07-10T04:08:09;13.40;99.90
28193;DHT22;15473;50.840;3.396;2022-07-10T04:10:55;13.40;99.90
28193;DHT22;15473;50.840;3.396;2022-07-10T04:13:41;13.40;99.90
28193;DHT22;15473;50.840;3.396;2022-07-10T04:16:26;13.30;99.90
28193;DHT22;15473;50.840;3.396;2022-07-10T04:19:12;13.40;99.90
28193;DHT22;15473;50.840;3.396;2022-07-10T04:21:58;13.50;99.90
28193;DHT22;15473;50.840;3.396;2022-07-10T04:24:43;13.50;99.90
28193;DHT22;15473;50.840;3.396;2022-07-10T04:27:29;13.50;99.90
28193;DHT22;15473;50.840;3.396;2022-07-10T04:30:17;13.60;99.90
28193;DHT22;15473;50.840;3.396;2022-07-10T04:33:03;13.60;99.90
28193;DHT22;15473;50.840;3.396;2022-07-10T04:35:49;13.60;99.90
28193;DHT22;15473;50.840;3.396;2022-07-10T04:38:35;13.70;99.90
28193;DHT22;15473;50.840;3.396;2022-07-10T04:41:20;13.70;99.90
28193;DHT22;15473;50.840;3.396;2022-07-10T04:44:06;13.70;99.90
28193;DHT22;15473;50.840;3.396;2022-07-10T04:46:52;13.70;99.90
28193;DHT22;15473;50.840;3.396;2022-07-10T04:49:38;13.70;99.90
28193;DHT22;15473;50.840;3.396;2022-07-10T04:52:24;13.80;99.90
28193;DHT22;15473;50.840;3.396;2022-07-10T04:55:09;13.70;99.90
28193;DHT22;15473;50.840;3.396;2022-07-10T04:57:54;13.80;99.90
28193;DHT22;15473;50.840;3.396;2022-07-10T05:00:40;13.80;99.90
28193;DHT22;15473;50.840;3.396;2022-07-10T05:03:26;13.90;99.90
28193;DHT22;15473;50.840;3.396;2022-07-10T05:06:13;13.90;99.90
28193;DHT22;15473;50.840;3.396;2022-07-10T05:08:58;14.00;99.90
28193;DHT22;15473;50.840;3.396;2022-07-10T05:11:44;14.10;99.90
28193;DHT22;15473;50.840;3.396;2022-07-10T05:14:29;14.20;99.90
28193;DHT22;15473;50.840;3.396;2022-07-10T05:17:15;14.20;99.90
28193;DHT22;15473;50.840;3.396;2022-07-10T05:20:01;14.30;99.90
28193;DHT22;15473;50.840;3.396;2022-07-10T05:22:46;14.40;99.90
28193;DHT22;15473;50.840;3.396;2022-07-10T05:25:32;14.50;99.90
28193;DHT22;15473;50.840;3.396;2022-07-10T05:28:18;14.60;99.90
28193;DHT22;15473;50.840;3.396;2022-07-10T05:31:03;14.60;99.90
28193;DHT22;15473;50.840;3.396;2022-07-10T05:33:49;14.70;99.90
28193;DHT22;15473;50.840;3.396;2022-07-10T05:36:34;14.80;99.90
28193;DHT22;15473;50.840;3.396;2022-07-10T05:39:20;14.90;99.90
28193;DHT22;15473;50.840;3.396;2022-07-10T05:42:06;14.90;99.90
28193;DHT22;15473;50.840;3.396;2022-07-10T05:44:52;15.00;99.90
28193;DHT22;15473;50.840;3.396;2022-07-10T05:47:38;15.10;99.90
28193;DHT22;15473;50.840;3.396;2022-07-10T05:50:23;15.20;99.90
28193;DHT22;15473;50.840;3.396;2022-07-10T05:53:09;15.40;99.90
28193;DHT22;15473;50.840;3.396;2022-07-10T05:55:59;15.50;99.90
28193;DHT22;15473;50.840;3.396;2022-07-10T05:58:43;15.70;99.90
28193;DHT22;15473;50.840;3.396;2022-07-10T06:01:29;15.90;99.90
28193;DHT22;15473;50.840;3.396;2022-07-10T06:04:17;16.50;99.90
28193;DHT22;15473;50.840;3.396;2022-07-10T06:07:02;19.40;99.90
28193;DHT22;15473;50.840;3.396;2022-07-10T06:09:48;20.70;99.90
28193;DHT22;15473;50.840;3.396;2022-07-10T06:12:34;22.20;99.90
28193;DHT22;15473;50.840;3.396;2022-07-10T06:15:21;23.20;99.90
28193;DHT22;15473;50.840;3.396;2022-07-10T06:18:07;26.70;99.90
28193;DHT22;15473;50.840;3.396;2022-07-10T06:20:53;30.50;99.30
28193;DHT22;15473;50.840;3.396;2022-07-10T06:23:38;32.90;94.80
28193;DHT22;15473;50.840;3.396;2022-07-10T06:26:24;34.50;92.10
28193;DHT22;15473;50.840;3.396;2022-07-10T06:29:09;35.90;89.70
28193;DHT22;15473;50.840;3.396;2022-07-10T06:31:55;35.60;85.70
28193;DHT22;15473;50.840;3.396;2022-07-10T06:34:41;33.00;89.80
28193;DHT22;15473;50.840;3.396;2022-07-10T06:37:26;32.00;90.70
28193;DHT22;15473;50.840;3.396;2022-07-10T06:40:12;33.20;88.60
28193;DHT22;15473;50.840;3.396;2022-07-10T06:43:00;35.40;85.00
28193;DHT22;15473;50.840;3.396;2022-07-10T06:45:45;36.70;81.50
28193;DHT22;15473;50.840;3.396;2022-07-10T06:48:31;36.20;79.70
28193;DHT22;15473;50.840;3.396;2022-07-10T06:51:17;32.50;85.40
28193;DHT22;15473;50.840;3.396;2022-07-10T06:54:03;29.50;91.10
28193;DHT22;15473;50.840;3.396;2022-07-10T06:56:48;27.90;92.60
28193;DHT22;15473;50.840;3.396;2022-07-10T06:59:34;26.20;94.10
28193;DHT22;15473;50.840;3.396;2022-07-10T07:02:20;25.60;95.70
28193;DHT22;15473;50.840;3.396;2022-07-10T07:05:06;26.00;95.50
28193;DHT22;15473;50.840;3.396;2022-07-10T07:07:52;25.40;96.00
28193;DHT22;15473;50.840;3.396;2022-07-10T07:10:38;24.90;96.70
28193;DHT22;15473;50.840;3.396;2022-07-10T07:13:27;26.20;96.30
28193;DHT22;15473;50.840;3.396;2022-07-10T07:16:13;27.40;94.70
28193;DHT22;15473;50.840;3.396;2022-07-10T07:19:00;28.40;94.10
28193;DHT22;15473;50.840;3.396;2022-07-10T07:21:47;31.40;92.00
28193;DHT22;15473;50.840;3.396;2022-07-10T07:24:50;33.40;88.80
28193;DHT22;15473;50.840;3.396;2022-07-10T07:27:36;33.60;84.90
28193;DHT22;15473;50.840;3.396;2022-07-10T07:30:22;31.80;88.20
28193;DHT22;15473;50.840;3.396;2022-07-10T07:33:08;31.20;89.70
28193;DHT22;15473;50.840;3.396;2022-07-10T07:35:54;30.20;91.50
28193;DHT22;15473;50.840;3.396;2022-07-10T07:38:39;31.80;90.70
28193;DHT22;15473;50.840;3.396;2022-07-10T07:41:25;34.20;84.90
28193;DHT22;15473;50.840;3.396;2022-07-10T07:44:11;36.10;82.20
28193;DHT22;15473;50.840;3.396;2022-07-10T07:46:57;37.00;79.70
28193;DHT22;15473;50.840;3.396;2022-07-10T07:49:42;37.30;77.40
28193;DHT22;15473;50.840;3.396;2022-07-10T07:52:28;37.60;76.60
28193;DHT22;15473;50.840;3.396;2022-07-10T07:55:16;38.00;76.20
28193;DHT22;15473;50.840;3.396;2022-07-10T07:58:02;38.40;76.50
28193;DHT22;15473;50.840;3.396;2022-07-10T08:00:48;38.20;75.30
28193;DHT22;15473;50.840;3.396;2022-07-10T08:03:33;37.60;77.00
28193;DHT22;15473;50.840;3.396;2022-07-10T08:06:19;34.20;80.60
28193;DHT22;15473;50.840;3.396;2022-07-10T08:09:05;31.10;85.40
28193;DHT22;15473;50.840;3.396;2022-07-10T08:11:51;28.70;88.70
28193;DHT22;15473;50.840;3.396;2022-07-10T08:14:36;26.70;92.20
28193;DHT22;15473;50.840;3.396;2022-07-10T08:17:24;25.50;93.60
28193;DHT22;15473;50.840;3.396;2022-07-10T08:20:11;24.90;95.60
28193;DHT22;15473;50.840;3.396;2022-07-10T08:22:56;24.30;95.30
28193;DHT22;15473;50.840;3.396;2022-07-10T08:25:42;23.80;95.90
28193;DHT22;15473;50.840;3.396;2022-07-10T08:28:28;23.50;96.60
28193;DHT22;15473;50.840;3.396;2022-07-10T08:31:13;23.50;97.30
28193;DHT22;15473;50.840;3.396;2022-07-10T08:33:59;23.20;97.00
28193;DHT22;15473;50.840;3.396;2022-07-10T08:36:44;23.10;98.10
28193;DHT22;15473;50.840;3.396;2022-07-10T08:39:30;23.10;98.40
28193;DHT22;15473;50.840;3.396;2022-07-10T08:42:16;23.10;98.80
28193;DHT22;15473;50.840;3.396;2022-07-10T08:45:03;23.10;98.60
28193;DHT22;15473;50.840;3.396;2022-07-10T08:47:49;22.90;97.50
28193;DHT22;15473;50.840;3.396;2022-07-10T08:50:37;22.80;98.60
28193;DHT22;15473;50.840;3.396;2022-07-10T08:53:28;22.80;98.60
28193;DHT22;15473;50.840;3.396;2022-07-10T08:56:15;22.80;98.50
28193;DHT22;15473;50.840;3.396;2022-07-10T08:59:02;22.80;98.70
28193;DHT22;15473;50.840;3.396;2022-07-10T09:01:48;22.60;98.60
28193;DHT22;15473;50.840;3.396;2022-07-10T09:04:34;22.50;99.90
28193;DHT22;15473;50.840;3.396;2022-07-10T09:07:20;22.40;99.20
28193;DHT22;15473;50.840;3.396;2022-07-10T09:10:07;22.40;99.90
28193;DHT22;15473;50.840;3.396;2022-07-10T09:12:53;22.30;99.80
28193;DHT22;15473;50.840;3.396;2022-07-10T09:15:39;22.30;99.90
28193;DHT22;15473;50.840;3.396;2022-07-10T09:18:25;22.40;99.30
28193;DHT22;15473;50.840;3.396;2022-07-10T09:21:11;22.40;99.40
28193;DHT22;15473;50.840;3.396;2022-07-10T09:23:58;22.50;99.80
28193;DHT22;15473;50.840;3.396;2022-07-10T09:26:45;22.60;99.60
28193;DHT22;15473;50.840;3.396;2022-07-10T09:29:31;22.60;99.90
28193;DHT22;15473;50.840;3.396;2022-07-10T09:32:18;22.40;99.10
28193;DHT22;15473;50.840;3.396;2022-07-10T09:35:04;22.40;99.90
28193;DHT22;15473;50.840;3.396;2022-07-10T09:38:08;22.50;99.90
28193;DHT22;15473;50.840;3.396;2022-07-10T09:41:21;22.60;99.90
28193;DHT22;15473;50.840;3.396;2022-07-10T09:43:52;22.70;99.90
28193;DHT22;15473;50.840;3.396;2022-07-10T09:46:38;22.70;99.40
28193;DHT22;15473;50.840;3.396;2022-07-10T09:49:27;22.90;98.90
28193;DHT22;15473;50.840;3.396;2022-07-10T09:52:12;22.90;99.50
28193;DHT22;15473;50.840;3.396;2022-07-10T09:54:59;22.90;98.60
28193;DHT22;15473;50.840;3.396;2022-07-10T09:57:48;23.00;99.80
28193;DHT22;15473;50.840;3.396;2022-07-10T10:00:35;23.10;99.60
28193;DHT22;15473;50.840;3.396;2022-07-10T10:03:20;23.30;99.30
28193;DHT22;15473;50.840;3.396;2022-07-10T10:06:10;23.60;99.30
28193;DHT22;15473;50.840;3.396;2022-07-10T10:11:44;24.50;98.00
28193;DHT22;15473;50.840;3.396;2022-07-10T10:14:32;24.80;97.30
28193;DHT22;15473;50.840;3.396;2022-07-10T10:17:19;24.80;97.40
28193;DHT22;15473;50.840;3.396;2022-07-10T10:20:05;24.70;96.60
28193;DHT22;15473;50.840;3.396;2022-07-10T10:23:09;24.50;96.20
28193;DHT22;15473;50.840;3.396;2022-07-10T10:25:56;24.40;96.80
28193;DHT22;15473;50.840;3.396;2022-07-10T10:28:42;24.50;97.60
28193;DHT22;15473;50.840;3.396;2022-07-10T10:31:28;24.70;96.70
28193;DHT22;15473;50.840;3.396;2022-07-10T10:34:15;25.30;96.90
28193;DHT22;15473;50.840;3.396;2022-07-10T10:37:02;25.90;95.50
28193;DHT22;15473;50.840;3.396;2022-07-10T10:39:57;26.20;95.00
28193;DHT22;15473;50.840;3.396;2022-07-10T10:42:43;26.20;95.20
28193;DHT22;15473;50.840;3.396;2022-07-10T10:48:17;26.50;94.60
28193;DHT22;15473;50.840;3.396;2022-07-10T10:51:05;26.70;94.30
28193;DHT22;15473;50.840;3.396;2022-07-10T10:54:03;26.40;95.20
28193;DHT22;15473;50.840;3.396;2022-07-10T10:56:38;26.40;95.30
28193;DHT22;15473;50.840;3.396;2022-07-10T11:02:28;26.10;94.70
28193;DHT22;15473;50.840;3.396;2022-07-10T11:08:04;25.50;95.80
28193;DHT22;15473;50.840;3.396;2022-07-10T11:10:51;25.10;96.50
28193;DHT22;15473;50.840;3.396;2022-07-10T11:13:39;25.00;97.20
28193;DHT22;15473;50.840;3.396;2022-07-10T11:16:25;25.10;97.90
28193;DHT22;15473;50.840;3.396;2022-07-10T11:19:11;25.10;95.70
28193;DHT22;15473;50.840;3.396;2022-07-10T11:28:00;25.30;97.10
28193;DHT22;15473;50.840;3.396;2022-07-10T11:30:52;25.40;97.30
28193;DHT22;15473;50.840;3.396;2022-07-10T11:33:45;25.10;96.80
28193;DHT22;15473;50.840;3.396;2022-07-10T11:36:28;24.80;97.40
28193;DHT22;15473;50.840;3.396;2022-07-10T11:39:15;24.70;98.10
28193;DHT22;15473;50.840;3.396;2022-07-10T11:42:01;24.60;97.60
28193;DHT22;15473;50.840;3.396;2022-07-10T11:44:46;24.60;97.60
28193;DHT22;15473;50.840;3.396;2022-07-10T11:47:32;24.50;97.60
28193;DHT22;15473;50.840;3.396;2022-07-10T11:50:18;24.60;98.60
28193;DHT22;15473;50.840;3.396;2022-07-10T11:53:04;24.40;98.20
28193;DHT22;15473;50.840;3.396;2022-07-10T11:55:50;24.30;98.50
28193;DHT22;15473;50.840;3.396;2022-07-10T11:58:37;24.00;97.50
28193;DHT22;15473;50.840;3.396;2022-07-10T12:01:22;23.70;98.00
28193;DHT22;15473;50.840;3.396;2022-07-10T12:04:08;23.50;98.50
28193;DHT22;15473;50.840;3.396;2022-07-10T12:06:54;23.60;99.10
28193;DHT22;15473;50.840;3.396;2022-07-10T12:09:40;23.60;99.10
28193;DHT22;15473;50.840;3.396;2022-07-10T12:12:26;23.50;98.80
28193;DHT22;15473;50.840;3.396;2022-07-10T12:15:29;23.30;98.60
28193;DHT22;15473;50.840;3.396;2022-07-10T12:17:59;23.20;99.60
28193;DHT22;15473;50.840;3.396;2022-07-10T12:20:45;23.30;99.90
28193;DHT22;15473;50.840;3.396;2022-07-10T12:23:32;23.30;99.70
28193;DHT22;15473;50.840;3.396;2022-07-10T12:26:20;23.30;99.90
28193;DHT22;15473;50.840;3.396;2022-07-10T12:29:06;23.40;99.90
28193;DHT22;15473;50.840;3.396;2022-07-10T12:31:52;23.50;99.80
28193;DHT22;15473;50.840;3.396;2022-07-10T12:34:40;23.70;99.90
28193;DHT22;15473;50.840;3.396;2022-07-10T12:37:27;23.80;99.90
28193;DHT22;15473;50.840;3.396;2022-07-10T12:40:29;24.10;99.00
28193;DHT22;15473;50.840;3.396;2022-07-10T12:43:26;24.40;99.40
28193;DHT22;15473;50.840;3.396;2022-07-10T12:46:20;24.20;98.70
28193;DHT22;15473;50.840;3.396;2022-07-10T12:49:08;24.00;99.00
28193;DHT22;15473;50.840;3.396;2022-07-10T12:51:54;24.00;99.40
28193;DHT22;15473;50.840;3.396;2022-07-10T12:54:40;24.00;99.70
28193;DHT22;15473;50.840;3.396;2022-07-10T12:57:25;23.90;98.90
28193;DHT22;15473;50.840;3.396;2022-07-10T13:00:12;24.00;98.30
28193;DHT22;15473;50.840;3.396;2022-07-10T13:05:46;24.40;98.90
28193;DHT22;15473;50.840;3.396;2022-07-10T13:08:43;24.60;99.40
28193;DHT22;15473;50.840;3.396;2022-07-10T13:11:18;24.50;98.40
28193;DHT22;15473;50.840;3.396;2022-07-10T13:14:04;24.40;99.00
28193;DHT22;15473;50.840;3.396;2022-07-10T13:16:49;24.40;99.70
28193;DHT22;15473;50.840;3.396;2022-07-10T13:22:41;24.40;98.90
28193;DHT22;15473;50.840;3.396;2022-07-10T13:25:26;24.50;98.80
28193;DHT22;15473;50.840;3.396;2022-07-10T13:28:14;24.60;97.70
28193;DHT22;15473;50.840;3.396;2022-07-10T13:31:00;24.70;99.00
28193;DHT22;15473;50.840;3.396;2022-07-10T13:33:46;24.90;97.60
28193;DHT22;15473;50.840;3.396;2022-07-10T13:36:32;25.00;97.60
28193;DHT22;15473;50.840;3.396;2022-07-10T13:39:18;24.90;98.60
28193;DHT22;15473;50.840;3.396;2022-07-10T13:42:04;24.90;98.50
28193;DHT22;15473;50.840;3.396;2022-07-10T13:44:49;24.80;98.60
28193;DHT22;15473;50.840;3.396;2022-07-10T13:47:35;24.60;97.90
28193;DHT22;15473;50.840;3.396;2022-07-10T13:50:21;24.60;98.40
28193;DHT22;15473;50.840;3.396;2022-07-10T13:53:07;24.50;97.50
28193;DHT22;15473;50.840;3.396;2022-07-10T13:55:53;24.40;98.60
28193;DHT22;15473;50.840;3.396;2022-07-10T13:58:39;24.40;99.00
28193;DHT22;15473;50.840;3.396;2022-07-10T14:01:25;24.40;98.50
28193;DHT22;15473;50.840;3.396;2022-07-10T14:04:10;24.30;98.00
28193;DHT22;15473;50.840;3.396;2022-07-10T14:06:56;24.30;98.60
28193;DHT22;15473;50.840;3.396;2022-07-10T14:09:42;24.30;99.10
28193;DHT22;15473;50.840;3.396;2022-07-10T14:12:28;24.40;98.70
28193;DHT22;15473;50.840;3.396;2022-07-10T14:15:13;24.50;98.10
28193;DHT22;15473;50.840;3.396;2022-07-10T14:17:59;24.60;98.40
28193;DHT22;15473;50.840;3.396;2022-07-10T14:20:44;24.60;98.30
28193;DHT22;15473;50.840;3.396;2022-07-10T14:23:48;24.80;97.80
28193;DHT22;15473;50.840;3.396;2022-07-10T14:26:34;25.00;97.80
28193;DHT22;15473;50.840;3.396;2022-07-10T14:29:20;25.20;98.00
28193;DHT22;15473;50.840;3.396;2022-07-10T14:32:05;25.20;96.70
28193;DHT22;15473;50.840;3.396;2022-07-10T14:34:51;25.00;97.80
28193;DHT22;15473;50.840;3.396;2022-07-10T14:37:37;24.90;97.50
28193;DHT22;15473;50.840;3.396;2022-07-10T14:40:22;24.80;97.90
28193;DHT22;15473;50.840;3.396;2022-07-10T14:43:11;24.80;97.70
28193;DHT22;15473;50.840;3.396;2022-07-10T14:45:56;24.90;98.50
28193;DHT22;15473;50.840;3.396;2022-07-10T14:48:42;25.10;98.90
28193;DHT22;15473;50.840;3.396;2022-07-10T14:51:28;25.10;98.00
28193;DHT22;15473;50.840;3.396;2022-07-10T14:54:20;25.10;97.90
28193;DHT22;15473;50.840;3.396;2022-07-10T14:57:06;25.20;97.70
28193;DHT22;15473;50.840;3.396;2022-07-10T14:59:51;25.10;97.80
28193;DHT22;15473;50.840;3.396;2022-07-10T15:02:37;25.00;98.40
28193;DHT22;15473;50.840;3.396;2022-07-10T15:05:23;24.90;98.20
28193;DHT22;15473;50.840;3.396;2022-07-10T15:08:08;24.80;98.20
28193;DHT22;15473;50.840;3.396;2022-07-10T15:10:53;24.60;97.80
28193;DHT22;15473;50.840;3.396;2022-07-10T15:13:39;24.40;98.30
28193;DHT22;15473;50.840;3.396;2022-07-10T15:16:29;24.20;97.90
28193;DHT22;15473;50.840;3.396;2022-07-10T15:19:12;24.10;98.70
28193;DHT22;15473;50.840;3.396;2022-07-10T15:21:57;24.10;98.60
28193;DHT22;15473;50.840;3.396;2022-07-10T15:24:43;24.00;98.90
28193;DHT22;15473;50.840;3.396;2022-07-10T15:27:30;23.90;98.80
28193;DHT22;15473;50.840;3.396;2022-07-10T15:30:15;23.90;99.00
28193;DHT22;15473;50.840;3.396;2022-07-10T15:33:01;23.80;98.60
28193;DHT22;15473;50.840;3.396;2022-07-10T15:35:47;23.80;98.00
28193;DHT22;15473;50.840;3.396;2022-07-10T15:38:33;23.80;98.30
28193;DHT22;15473;50.840;3.396;2022-07-10T15:41:19;23.80;97.50
28193;DHT22;15473;50.840;3.396;2022-07-10T15:44:04;23.70;97.90
28193;DHT22;15473;50.840;3.396;2022-07-10T15:46:49;23.70;98.10
28193;DHT22;15473;50.840;3.396;2022-07-10T15:49:36;23.70;98.20
28193;DHT22;15473;50.840;3.396;2022-07-10T15:52:26;23.70;98.40
28193;DHT22;15473;50.840;3.396;2022-07-10T15:55:12;23.70;97.90
28193;DHT22;15473;50.840;3.396;2022-07-10T15:57:58;23.50;98.20
28193;DHT22;15473;50.840;3.396;2022-07-10T16:00:43;23.50;98.60
28193;DHT22;15473;50.840;3.396;2022-07-10T16:03:29;23.50;99.10
28193;DHT22;15473;50.840;3.396;2022-07-10T16:06:15;23.60;99.00
28193;DHT22;15473;50.840;3.396;2022-07-10T16:09:01;23.50;98.40
28193;DHT22;15473;50.840;3.396;2022-07-10T16:11:47;23.60;98.90
28193;DHT22;15473;50.840;3.396;2022-07-10T16:14:33;23.60;98.80
28193;DHT22;15473;50.840;3.396;2022-07-10T16:17:18;23.70;98.90
28193;DHT22;15473;50.840;3.396;2022-07-10T16:20:04;23.70;98.70
28193;DHT22;15473;50.840;3.396;2022-07-10T16:22:50;23.70;98.30
28193;DHT22;15473;50.840;3.396;2022-07-10T16:25:36;23.70;98.70
28193;DHT22;15473;50.840;3.396;2022-07-10T16:28:40;23.70;98.50
28193;DHT22;15473;50.840;3.396;2022-07-10T16:31:26;23.70;97.90
28193;DHT22;15473;50.840;3.396;2022-07-10T16:34:11;23.70;98.50
28193;DHT22;15473;50.840;3.396;2022-07-10T16:36:57;23.60;98.30
28193;DHT22;15473;50.840;3.396;2022-07-10T16:39:43;23.60;98.70
28193;DHT22;15473;50.840;3.396;2022-07-10T16:42:29;23.50;97.90
28193;DHT22;15473;50.840;3.396;2022-07-10T16:45:15;23.50;98.30
28193;DHT22;15473;50.840;3.396;2022-07-10T16:48:00;23.50;98.70
28193;DHT22;15473;50.840;3.396;2022-07-10T16:50:46;23.50;98.80
28193;DHT22;15473;50.840;3.396;2022-07-10T16:53:31;23.50;98.90
28193;DHT22;15473;50.840;3.396;2022-07-10T16:56:17;23.50;98.20
28193;DHT22;15473;50.840;3.396;2022-07-10T16:59:03;23.50;98.10
28193;DHT22;15473;50.840;3.396;2022-07-10T17:01:48;23.40;98.30
28193;DHT22;15473;50.840;3.396;2022-07-10T17:04:34;23.40;98.20
28193;DHT22;15473;50.840;3.396;2022-07-10T17:07:25;23.40;98.10
28193;DHT22;15473;50.840;3.396;2022-07-10T17:10:11;23.30;97.30
28193;DHT22;15473;50.840;3.396;2022-07-10T17:12:58;23.20;98.20
28193;DHT22;15473;50.840;3.396;2022-07-10T17:15:43;23.20;98.10
28193;DHT22;15473;50.840;3.396;2022-07-10T17:18:29;23.20;98.40
28193;DHT22;15473;50.840;3.396;2022-07-10T17:21:15;23.20;97.60
28193;DHT22;15473;50.840;3.396;2022-07-10T17:24:02;23.20;98.50
28193;DHT22;15473;50.840;3.396;2022-07-10T17:26:49;23.10;98.80
28193;DHT22;15473;50.840;3.396;2022-07-10T17:29:35;23.10;98.80
28193;DHT22;15473;50.840;3.396;2022-07-10T17:32:21;23.10;98.20
28193;DHT22;15473;50.840;3.396;2022-07-10T17:35:07;23.10;98.50
28193;DHT22;15473;50.840;3.396;2022-07-10T17:37:52;23.00;98.70
28193;DHT22;15473;50.840;3.396;2022-07-10T17:40:38;22.90;99.10
28193;DHT22;15473;50.840;3.396;2022-07-10T17:43:25;22.90;99.70
28193;DHT22;15473;50.840;3.396;2022-07-10T17:46:11;22.80;99.50
28193;DHT22;15473;50.840;3.396;2022-07-10T17:48:56;22.70;99.40
28193;DHT22;15473;50.840;3.396;2022-07-10T17:51:42;22.60;99.90
28193;DHT22;15473;50.840;3.396;2022-07-10T17:54:28;22.50;99.90